sensor_id;sensor_type;location;lat;lon;timestamp;pressure;altitude;pressure_sealevel;temperature
69415;BMP280;56608;43.530;-5.652;2022-12-29T00:00:21;101423.44;;;14.57
69415;BMP280;56608;43.530;-5.652;2022-12-29T00:01:22;101413.37;;;14.58
69415;BMP280;56608;43.530;-5.652;2022-12-29T00:02:23;101421.03;;;14.59
69415;BMP280;56608;43.530;-5.652;2022-12-29T00:03:25;101431.09;;;14.59
69415;BMP280;56608;43.530;-5.652;2022-12-29T00:04:27;101435.88;;;14.55
69415;BMP280;56608;43.530;-5.652;2022-12-29T00:05:27;101434.69;;;14.56
69415;BMP280;56608;43.530;-5.652;2022-12-29T00:06:30;101428.94;;;14.54
69415;BMP280;56608;43.530;-5.652;2022-12-29T00:07:31;101430.91;;;14.53
69415;BMP280;56608;43.530;-5.652;2022-12-29T00:08:33;101429.69;;;14.54
69415;BMP280;56608;43.530;-5.652;2022-12-29T00:09:40;101423.13;;;14.55
69415;BMP280;56608;43.530;-5.652;2022-12-29T00:10:41;101425.47;;;14.53
69415;BMP280;56608;43.530;-5.652;2022-12-29T00:11:43;101425.06;;;14.55
69415;BMP280;56608;43.530;-5.652;2022-12-29T00:12:45;101426.59;;;14.56
69415;BMP280;56608;43.530;-5.652;2022-12-29T00:14:22;101435.03;;;14.58
69415;BMP280;56608;43.530;-5.652;2022-12-29T00:15:41;101436.50;;;14.59
69415;BMP280;56608;43.530;-5.652;2022-12-29T00:16:44;101424.66;;;14.56
69415;BMP280;56608;43.530;-5.652;2022-12-29T00:17:46;101415.03;;;14.55
69415;BMP280;56608;43.530;-5.652;2022-12-29T00:18:47;101413.06;;;14.56
69415;BMP280;56608;43.530;-5.652;2022-12-29T00:19:49;101403.75;;;14.57
69415;BMP280;56608;43.530;-5.652;2022-12-29T00:21:17;101395.75;;;14.53
69415;BMP280;56608;43.530;-5.652;2022-12-29T00:22:37;101405.81;;;14.53
69415;BMP280;56608;43.530;-5.652;2022-12-29T00:23:57;101401.16;;;14.53
69415;BMP280;56608;43.530;-5.652;2022-12-29T00:25:17;101395.56;;;14.47
69415;BMP280;56608;43.530;-5.652;2022-12-29T00:26:37;101398.28;;;14.47
69415;BMP280;56608;43.530;-5.652;2022-12-29T00:27:57;101405.19;;;14.48
69415;BMP280;56608;43.530;-5.652;2022-12-29T00:29:18;101388.38;;;14.44
69415;BMP280;56608;43.530;-5.652;2022-12-29T00:30:38;101393.78;;;14.44
69415;BMP280;56608;43.530;-5.652;2022-12-29T00:31:58;101384.16;;;14.43
69415;BMP280;56608;43.530;-5.652;2022-12-29T00:33:20;101376.03;;;14.43
69415;BMP280;56608;43.530;-5.652;2022-12-29T00:34:40;101382.97;;;14.44
69415;BMP280;56608;43.530;-5.652;2022-12-29T00:36:10;101374.53;;;14.42
69415;BMP280;56608;43.530;-5.652;2022-12-29T00:37:13;101373.34;;;14.43
69415;BMP280;56608;43.530;-5.652;2022-12-29T00:38:14;101368.25;;;14.45
69415;BMP280;56608;43.530;-5.652;2022-12-29T00:39:34;101371.81;;;14.42
69415;BMP280;56608;43.530;-5.652;2022-12-29T00:40:54;101373.66;;;14.45
69415;BMP280;56608;43.530;-5.652;2022-12-29T00:42:14;101372.16;;;14.44
69415;BMP280;56608;43.530;-5.652;2022-12-29T00:43:34;101369.72;;;14.46
69415;BMP280;56608;43.530;-5.652;2022-12-29T00:44:54;101380.53;;;14.46
69415;BMP280;56608;43.530;-5.652;2022-12-29T00:45:54;101376.03;;;14.43
69415;BMP280;56608;43.530;-5.652;2022-12-29T00:46:56;101386.28;;;14.48
69415;BMP280;56608;43.530;-5.652;2022-12-29T00:47:57;101382.97;;;14.44
69415;BMP280;56608;43.530;-5.652;2022-12-29T00:48:58;101384.47;;;14.45
69415;BMP280;56608;43.530;-5.652;2022-12-29T00:50:18;101384.47;;;14.45
69415;BMP280;56608;43.530;-5.652;2022-12-29T00:51:19;101385.19;;;14.46
69415;BMP280;56608;43.530;-5.652;2022-12-29T00:52:20;101378.31;;;14.45
69415;BMP280;56608;43.530;-5.652;2022-12-29T00:53:22;101376.34;;;14.45
69415;BMP280;56608;43.530;-5.652;2022-12-29T00:54:23;101383.88;;;14.51
69415;BMP280;56608;43.530;-5.652;2022-12-29T00:55:25;101377.41;;;14.48
69415;BMP280;56608;43.530;-5.652;2022-12-29T00:56:26;101382.37;;;14.50
69415;BMP280;56608;43.530;-5.652;2022-12-29T00:57:27;101389.72;;;14.49
69415;BMP280;56608;43.530;-5.652;2022-12-29T00:58:29;101384.72;;;14.38
69415;BMP280;56608;43.530;-5.652;2022-12-29T00:59:31;101382.16;;;14.35
69415;BMP280;56608;43.530;-5.652;2022-12-29T01:00:33;101383.22;;;14.37
69415;BMP280;56608;43.530;-5.652;2022-12-29T01:01:35;101383.84;;;14.41
69415;BMP280;56608;43.530;-5.652;2022-12-29T01:02:37;101385.34;;;14.42
69415;BMP280;56608;43.530;-5.652;2022-12-29T01:03:38;101386.09;;;14.43
69415;BMP280;56608;43.530;-5.652;2022-12-29T01:04:40;101382.78;;;14.39
69415;BMP280;56608;43.530;-5.652;2022-12-29T01:05:41;101389.25;;;14.41
69415;BMP280;56608;43.530;-5.652;2022-12-29T01:06:43;101392.41;;;14.40
69415;BMP280;56608;43.530;-5.652;2022-12-29T01:07:44;101385.16;;;14.37
69415;BMP280;56608;43.530;-5.652;2022-12-29T01:08:44;101385.91;;;14.37
69415;BMP280;56608;43.530;-5.652;2022-12-29T01:09:46;101394.66;;;14.41
69415;BMP280;56608;43.530;-5.652;2022-12-29T01:11:10;101397.81;;;14.40
69415;BMP280;56608;43.530;-5.652;2022-12-29T01:12:12;101399.44;;;14.37
69415;BMP280;56608;43.530;-5.652;2022-12-29T01:13:12;101400.94;;;14.38
69415;BMP280;56608;43.530;-5.652;2022-12-29T01:14:13;101388.00;;;14.33
69415;BMP280;56608;43.530;-5.652;2022-12-29T01:15:15;101399.59;;;14.34
69415;BMP280;56608;43.530;-5.652;2022-12-29T01:16:16;101384.25;;;14.31
69415;BMP280;56608;43.530;-5.652;2022-12-29T01:17:18;101396.41;;;14.35
69415;BMP280;56608;43.530;-5.652;2022-12-29T01:18:20;101389.50;;;14.34
69415;BMP280;56608;43.530;-5.652;2022-12-29T01:19:22;101391.66;;;14.39
69415;BMP280;56608;43.530;-5.652;2022-12-29T01:20:23;101378.12;;;14.39
69415;BMP280;56608;43.530;-5.652;2022-12-29T01:21:25;101368.19;;;14.36
69415;BMP280;56608;43.530;-5.652;2022-12-29T01:22:25;101370.62;;;14.43
69415;BMP280;56608;43.530;-5.652;2022-12-29T01:23:28;101364.63;;;14.39
69415;BMP280;56608;43.530;-5.652;2022-12-29T01:24:30;101350.16;;;14.33
69415;BMP280;56608;43.530;-5.652;2022-12-29T01:25:31;101351.91;;;14.27
69415;BMP280;56608;43.530;-5.652;2022-12-29T01:26:33;101361.09;;;14.30
69415;BMP280;56608;43.530;-5.652;2022-12-29T01:27:33;101357.22;;;14.31
69415;BMP280;56608;43.530;-5.652;2022-12-29T01:28:35;101346.63;;;14.24
69415;BMP280;56608;43.530;-5.652;2022-12-29T01:29:37;101343.50;;;14.25
69415;BMP280;56608;43.530;-5.652;2022-12-29T01:30:38;101344.69;;;14.24
69415;BMP280;56608;43.530;-5.652;2022-12-29T01:31:39;101341.22;;;14.24
69415;BMP280;56608;43.530;-5.652;2022-12-29T01:32:41;101333.25;;;14.20
69415;BMP280;56608;43.530;-5.652;2022-12-29T01:33:43;101327.97;;;14.17
69415;BMP280;56608;43.530;-5.652;2022-12-29T01:34:44;101340.62;;;14.20
69415;BMP280;56608;43.530;-5.652;2022-12-29T01:35:46;101340.62;;;14.20
69415;BMP280;56608;43.530;-5.652;2022-12-29T01:36:47;101325.91;;;14.21
69415;BMP280;56608;43.530;-5.652;2022-12-29T01:37:48;101330.56;;;14.20
69415;BMP280;56608;43.530;-5.652;2022-12-29T01:38:50;101333.38;;;14.17
69415;BMP280;56608;43.530;-5.652;2022-12-29T01:39:51;101336.97;;;14.14
69415;BMP280;56608;43.530;-5.652;2022-12-29T01:40:53;101337.41;;;14.12
69415;BMP280;56608;43.530;-5.652;2022-12-29T01:41:54;101329.31;;;14.12
69415;BMP280;56608;43.530;-5.652;2022-12-29T01:42:55;101331.44;;;14.17
69415;BMP280;56608;43.530;-5.652;2022-12-29T01:43:58;101337.59;;;14.18
69415;BMP280;56608;43.530;-5.652;2022-12-29T01:45:09;101341.06;;;14.18
69415;BMP280;56608;43.530;-5.652;2022-12-29T01:48:30;101351.87;;;14.18
69415;BMP280;56608;43.530;-5.652;2022-12-29T01:49:32;101360.41;;;14.17
69415;BMP280;56608;43.530;-5.652;2022-12-29T01:50:37;101346.72;;;14.11
69415;BMP280;56608;43.530;-5.652;2022-12-29T01:51:45;101350.06;;;14.15
69415;BMP280;56608;43.530;-5.652;2022-12-29T01:53:20;101356.22;;;14.16
69415;BMP280;56608;43.530;-5.652;2022-12-29T01:54:32;101350.06;;;14.15
69415;BMP280;56608;43.530;-5.652;2022-12-29T01:55:38;101359.03;;;14.12
69415;BMP280;56608;43.530;-5.652;2022-12-29T01:56:41;101366.28;;;14.15
69415;BMP280;56608;43.530;-5.652;2022-12-29T01:57:46;101362.34;;;14.16
69415;BMP280;56608;43.530;-5.652;2022-12-29T01:58:55;101365.06;;;14.16
69415;BMP280;56608;43.530;-5.652;2022-12-29T02:00:06;101366.72;;;14.14
69415;BMP280;56608;43.530;-5.652;2022-12-29T02:01:09;101366.28;;;14.15
69415;BMP280;56608;43.530;-5.652;2022-12-29T02:02:10;101370.34;;;14.20
69415;BMP280;56608;43.530;-5.652;2022-12-29T02:03:12;101355.75;;;14.17
69415;BMP280;56608;43.530;-5.652;2022-12-29T02:04:14;101359.97;;;14.18
69415;BMP280;56608;43.530;-5.652;2022-12-29T02:05:33;101351.53;;;14.16
69415;BMP280;56608;43.530;-5.652;2022-12-29T02:06:57;101345.53;;;14.12
69415;BMP280;56608;43.530;-5.652;2022-12-29T02:08:00;101348.97;;;14.13
69415;BMP280;56608;43.530;-5.652;2022-12-29T02:09:02;101345.53;;;14.12
69415;BMP280;56608;43.530;-5.652;2022-12-29T02:10:04;101359.34;;;14.14
69415;BMP280;56608;43.530;-5.652;2022-12-29T02:11:06;101351.38;;;14.11
69415;BMP280;56608;43.530;-5.652;2022-12-29T02:12:09;101360.88;;;14.15
69415;BMP280;56608;43.530;-5.652;2022-12-29T02:13:10;101357.41;;;14.15
69415;BMP280;56608;43.530;-5.652;2022-12-29T02:14:13;101358.47;;;14.17
69415;BMP280;56608;43.530;-5.652;2022-12-29T02:15:15;101362.50;;;14.13
69415;BMP280;56608;43.530;-5.652;2022-12-29T02:20:47;101365.19;;;14.13
69415;BMP280;56608;43.530;-5.652;2022-12-29T02:23:48;101364.31;;;14.16
69415;BMP280;56608;43.530;-5.652;2022-12-29T02:32:52;101356.66;;;14.14
69415;BMP280;56608;43.530;-5.652;2022-12-29T02:36:03;101350.94;;;14.12
69415;BMP280;56608;43.530;-5.652;2022-12-29T02:37:22;101355.28;;;14.10
69415;BMP280;56608;43.530;-5.652;2022-12-29T02:38:37;101362.63;;;14.09
69415;BMP280;56608;43.530;-5.652;2022-12-29T02:39:53;101365.34;;;14.09
69415;BMP280;56608;43.530;-5.652;2022-12-29T02:41:07;101362.31;;;14.07
69415;BMP280;56608;43.530;-5.652;2022-12-29T02:44:56;101371.94;;;14.08
69415;BMP280;56608;43.530;-5.652;2022-12-29T02:47:28;101376.16;;;14.09
69415;BMP280;56608;43.530;-5.652;2022-12-29T02:48:44;101382.75;;;14.08
69415;BMP280;56608;43.530;-5.652;2022-12-29T02:50:01;101387.38;;;14.07
69415;BMP280;56608;43.530;-5.652;2022-12-29T02:51:12;101393.97;;;14.06
69415;BMP280;56608;43.530;-5.652;2022-12-29T02:52:19;101399.81;;;14.05
69415;BMP280;56608;43.530;-5.652;2022-12-29T02:53:23;101397.97;;;14.02
69415;BMP280;56608;43.530;-5.652;2022-12-29T02:54:48;101399.59;;;13.99
69415;BMP280;56608;43.530;-5.652;2022-12-29T02:55:51;101391.50;;;13.99
69415;BMP280;56608;43.530;-5.652;2022-12-29T02:56:53;101398.09;;;13.98
69415;BMP280;56608;43.530;-5.652;2022-12-29T02:58:15;101395.09;;;13.96
69415;BMP280;56608;43.530;-5.652;2022-12-29T02:59:17;101393.44;;;13.99
69415;BMP280;56608;43.530;-5.652;2022-12-29T03:00:19;101396.81;;;14.03
69415;BMP280;56608;43.530;-5.652;2022-12-29T03:01:32;101399.94;;;14.01
69415;BMP280;56608;43.530;-5.652;2022-12-29T03:07:38;101402.84;;;14.07
69415;BMP280;56608;43.530;-5.652;2022-12-29T03:09:02;101397.44;;;14.07
69415;BMP280;56608;43.530;-5.652;2022-12-29T03:11:33;101391.12;;;14.10
69415;BMP280;56608;43.530;-5.652;2022-12-29T03:13:11;101402.28;;;14.12
69415;BMP280;56608;43.530;-5.652;2022-12-29T03:14:57;101406.16;;;14.11
69415;BMP280;56608;43.530;-5.652;2022-12-29T03:16:31;101400.47;;;14.09
69415;BMP280;56608;43.530;-5.652;2022-12-29T03:17:48;101396.53;;;14.10
69415;BMP280;56608;43.530;-5.652;2022-12-29T03:20:18;101402.69;;;14.11
69415;BMP280;56608;43.530;-5.652;2022-12-29T03:21:41;101408.44;;;14.13
69415;BMP280;56608;43.530;-5.652;2022-12-29T03:23:05;101404.97;;;14.12
69415;BMP280;56608;43.530;-5.652;2022-12-29T03:24:07;101401.50;;;14.12
69415;BMP280;56608;43.530;-5.652;2022-12-29T03:25:14;101407.34;;;14.10
69415;BMP280;56608;43.530;-5.652;2022-12-29T03:26:19;101398.06;;;14.11
69415;BMP280;56608;43.530;-5.652;2022-12-29T03:27:44;101400.75;;;14.11
69415;BMP280;56608;43.530;-5.652;2022-12-29T03:28:54;101396.09;;;14.12
69415;BMP280;56608;43.530;-5.652;2022-12-29T03:30:01;101387.25;;;14.11
69415;BMP280;56608;43.530;-5.652;2022-12-29T03:31:04;101394.16;;;14.12
69415;BMP280;56608;43.530;-5.652;2022-12-29T03:32:08;101395.06;;;14.09
69415;BMP280;56608;43.530;-5.652;2022-12-29T03:33:14;101395.16;;;14.05
69415;BMP280;56608;43.530;-5.652;2022-12-29T03:34:18;101393.78;;;14.01
69415;BMP280;56608;43.530;-5.652;2022-12-29T03:35:22;101403.72;;;14.04
69415;BMP280;56608;43.530;-5.652;2022-12-29T03:36:30;101403.06;;;14.00
69415;BMP280;56608;43.530;-5.652;2022-12-29T03:37:42;101406.41;;;14.04
69415;BMP280;56608;43.530;-5.652;2022-12-29T03:39:09;101396.47;;;14.01
69415;BMP280;56608;43.530;-5.652;2022-12-29T03:40:12;101398.31;;;14.04
69415;BMP280;56608;43.530;-5.652;2022-12-29T03:41:18;101400.69;;;14.02
69415;BMP280;56608;43.530;-5.652;2022-12-29T03:42:23;101395.28;;;14.02
69415;BMP280;56608;43.530;-5.652;2022-12-29T03:43:26;101396.16;;;13.99
69415;BMP280;56608;43.530;-5.652;2022-12-29T03:44:36;101401.00;;;14.04
69415;BMP280;56608;43.530;-5.652;2022-12-29T03:45:38;101398.31;;;14.04
69415;BMP280;56608;43.530;-5.652;2022-12-29T03:46:40;101402.84;;;14.07
69415;BMP280;56608;43.530;-5.652;2022-12-29T03:47:41;101395.94;;;14.06
69415;BMP280;56608;43.530;-5.652;2022-12-29T03:48:42;101397.44;;;14.07
69415;BMP280;56608;43.530;-5.652;2022-12-29T03:49:44;101401.75;;;14.04
69415;BMP280;56608;43.530;-5.652;2022-12-29T03:50:45;101397.56;;;14.03
69415;BMP280;56608;43.530;-5.652;2022-12-29T03:51:45;101401.34;;;14.06
69415;BMP280;56608;43.530;-5.652;2022-12-29T03:52:47;101401.66;;;14.08
69415;BMP280;56608;43.530;-5.652;2022-12-29T03:53:49;101403.16;;;14.09
69415;BMP280;56608;43.530;-5.652;2022-12-29T03:54:49;101398.19;;;14.07
69415;BMP280;56608;43.530;-5.652;2022-12-29T03:55:51;101407.34;;;14.10
69415;BMP280;56608;43.530;-5.652;2022-12-29T03:56:53;101408.25;;;14.07
69415;BMP280;56608;43.530;-5.652;2022-12-29T03:57:54;101412.75;;;14.10
69415;BMP280;56608;43.530;-5.652;2022-12-29T03:58:55;101408.84;;;14.11
69415;BMP280;56608;43.530;-5.652;2022-12-29T03:59:57;101408.00;;;14.14
69415;BMP280;56608;43.530;-5.652;2022-12-29T04:00:57;101409.19;;;14.13
69415;BMP280;56608;43.530;-5.652;2022-12-29T04:01:59;101396.53;;;14.10
69415;BMP280;56608;43.530;-5.652;2022-12-29T04:03:00;101394.16;;;14.12
69415;BMP280;56608;43.530;-5.652;2022-12-29T04:04:02;101398.38;;;14.13
69415;BMP280;56608;43.530;-5.652;2022-12-29T04:05:02;101399.47;;;14.16
69415;BMP280;56608;43.530;-5.652;2022-12-29T04:06:04;101397.94;;;14.15
69415;BMP280;56608;43.530;-5.652;2022-12-29T04:07:05;101387.25;;;14.11
69415;BMP280;56608;43.530;-5.652;2022-12-29T04:08:07;101397.19;;;14.14
69415;BMP280;56608;43.530;-5.652;2022-12-29T04:09:09;101404.22;;;14.12
69415;BMP280;56608;43.530;-5.652;2022-12-29T04:10:11;101400.75;;;14.11
69415;BMP280;56608;43.530;-5.652;2022-12-29T04:11:13;101393.97;;;14.06
69415;BMP280;56608;43.530;-5.652;2022-12-29T04:12:14;101402.69;;;14.11
69415;BMP280;56608;43.530;-5.652;2022-12-29T04:13:16;101402.69;;;14.11
69415;BMP280;56608;43.530;-5.652;2022-12-29T04:14:17;101410.94;;;14.07
69415;BMP280;56608;43.530;-5.652;2022-12-29T04:15:19;101395.28;;;14.02
69415;BMP280;56608;43.530;-5.652;2022-12-29T04:16:20;101396.69;;;14.06
69415;BMP280;56608;43.530;-5.652;2022-12-29T04:17:22;101397.56;;;14.03
69415;BMP280;56608;43.530;-5.652;2022-12-29T04:18:23;101396.47;;;14.01
69415;BMP280;56608;43.530;-5.652;2022-12-29T04:19:24;101391.50;;;13.99
69415;BMP280;56608;43.530;-5.652;2022-12-29T04:20:26;101398.41;;;14.00
69415;BMP280;56608;43.530;-5.652;2022-12-29T04:21:46;101399.31;;;13.97
69415;BMP280;56608;43.530;-5.652;2022-12-29T04:22:47;101399.00;;;13.95
69415;BMP280;56608;43.530;-5.652;2022-12-29T04:23:48;101395.84;;;13.97
69415;BMP280;56608;43.530;-5.652;2022-12-29T04:24:50;101391.00;;;13.92
69415;BMP280;56608;43.530;-5.652;2022-12-29T04:25:51;101396.09;;;13.90
69415;BMP280;56608;43.530;-5.652;2022-12-29T04:26:52;101400.75;;;13.89
69415;BMP280;56608;43.530;-5.652;2022-12-29T04:27:53;101401.50;;;13.90
69415;BMP280;56608;43.530;-5.652;2022-12-29T04:28:55;101401.78;;;13.92
69415;BMP280;56608;43.530;-5.652;2022-12-29T04:29:56;101397.28;;;13.89
69415;BMP280;56608;43.530;-5.652;2022-12-29T04:30:57;101416.53;;;13.91
69415;BMP280;56608;43.530;-5.652;2022-12-29T04:31:58;101418.91;;;13.89
69415;BMP280;56608;43.530;-5.652;2022-12-29T04:32:59;101424.41;;;13.85
69415;BMP280;56608;43.530;-5.652;2022-12-29T04:34:01;101425.50;;;13.88
69415;BMP280;56608;43.530;-5.652;2022-12-29T04:35:03;101419.13;;;13.82
69415;BMP280;56608;43.530;-5.652;2022-12-29T04:36:03;101423.69;;;13.85
69415;BMP280;56608;43.530;-5.652;2022-12-29T04:37:05;101415.56;;;13.85
69415;BMP280;56608;43.530;-5.652;2022-12-29T04:38:07;101410.59;;;13.83
69415;BMP280;56608;43.530;-5.652;2022-12-29T04:39:08;101409.41;;;13.84
69415;BMP280;56608;43.530;-5.652;2022-12-29T04:40:10;101412.56;;;13.83
69415;BMP280;56608;43.530;-5.652;2022-12-29T04:41:11;101416.00;;;13.83
69415;BMP280;56608;43.530;-5.652;2022-12-29T04:42:13;101412.87;;;13.85
69415;BMP280;56608;43.530;-5.652;2022-12-29T04:43:14;101431.03;;;13.84
69415;BMP280;56608;43.530;-5.652;2022-12-29T04:44:16;101418.56;;;13.87
69415;BMP280;56608;43.530;-5.652;2022-12-29T04:45:18;101410.59;;;13.83
69415;BMP280;56608;43.530;-5.652;2022-12-29T04:46:18;101415.88;;;13.87
69415;BMP280;56608;43.530;-5.652;2022-12-29T04:47:20;101405.41;;;13.89
69415;BMP280;56608;43.530;-5.652;2022-12-29T04:48:22;101406.00;;;13.93
69415;BMP280;56608;43.530;-5.652;2022-12-29T04:49:23;101409.91;;;13.92
69415;BMP280;56608;43.530;-5.652;2022-12-29T04:50:25;101418.00;;;13.92
69415;BMP280;56608;43.530;-5.652;2022-12-29T04:51:27;101406.00;;;13.93
69415;BMP280;56608;43.530;-5.652;2022-12-29T04:52:28;101408.59;;;13.96
69415;BMP280;56608;43.530;-5.652;2022-12-29T04:53:30;101411.16;;;14.00
69415;BMP280;56608;43.530;-5.652;2022-12-29T04:54:31;101413.03;;;14.03
69415;BMP280;56608;43.530;-5.652;2022-12-29T04:55:33;101411.09;;;14.03
69415;BMP280;56608;43.530;-5.652;2022-12-29T04:56:34;101402.63;;;14.01
69415;BMP280;56608;43.530;-5.652;2022-12-29T04:57:35;101397.22;;;14.01
69415;BMP280;56608;43.530;-5.652;2022-12-29T04:58:37;101408.78;;;14.02
69415;BMP280;56608;43.530;-5.652;2022-12-29T04:59:38;101412.13;;;14.06
69415;BMP280;56608;43.530;-5.652;2022-12-29T05:00:40;101392.19;;;14.03
69415;BMP280;56608;43.530;-5.652;2022-12-29T05:01:41;101405.53;;;14.07
69415;BMP280;56608;43.530;-5.652;2022-12-29T05:02:43;101393.22;;;14.06
69415;BMP280;56608;43.530;-5.652;2022-12-29T05:03:44;101397.88;;;14.05
69415;BMP280;56608;43.530;-5.652;2022-12-29T05:04:46;101394.41;;;14.05
69415;BMP280;56608;43.530;-5.652;2022-12-29T05:05:47;101394.72;;;14.07
69415;BMP280;56608;43.530;-5.652;2022-12-29T05:06:49;101399.81;;;14.05
69415;BMP280;56608;43.530;-5.652;2022-12-29T05:07:50;101394.13;;;14.03
69415;BMP280;56608;43.530;-5.652;2022-12-29T05:08:51;101394.41;;;14.05
69415;BMP280;56608;43.530;-5.652;2022-12-29T05:09:53;101402.22;;;14.03
69415;BMP280;56608;43.530;-5.652;2022-12-29T05:10:54;101395.94;;;14.06
69415;BMP280;56608;43.530;-5.652;2022-12-29T05:11:56;101401.00;;;14.04
69415;BMP280;56608;43.530;-5.652;2022-12-29T05:12:57;101392.56;;;14.02
69415;BMP280;56608;43.530;-5.652;2022-12-29T05:13:59;101398.63;;;14.06
69415;BMP280;56608;43.530;-5.652;2022-12-29T05:15:00;101397.13;;;14.05
69415;BMP280;56608;43.530;-5.652;2022-12-29T05:16:03;101396.34;;;14.04
69415;BMP280;56608;43.530;-5.652;2022-12-29T05:17:04;101389.00;;;14.05
69415;BMP280;56608;43.530;-5.652;2022-12-29T05:18:06;101399.81;;;14.05
69415;BMP280;56608;43.530;-5.652;2022-12-29T05:19:06;101390.97;;;14.04
69415;BMP280;56608;43.530;-5.652;2022-12-29T05:20:09;101387.38;;;14.07
69415;BMP280;56608;43.530;-5.652;2022-12-29T05:21:10;101374.75;;;14.04
69415;BMP280;56608;43.530;-5.652;2022-12-29T05:22:12;101376.69;;;14.04
69415;BMP280;56608;43.530;-5.652;2022-12-29T05:23:13;101370.84;;;14.05
69415;BMP280;56608;43.530;-5.652;2022-12-29T05:24:14;101378.09;;;14.08
69415;BMP280;56608;43.530;-5.652;2022-12-29T05:25:16;101384.38;;;14.05
69415;BMP280;56608;43.530;-5.652;2022-12-29T05:26:17;101378.19;;;14.05
69415;BMP280;56608;43.530;-5.652;2022-12-29T05:27:18;101382.97;;;14.01
69415;BMP280;56608;43.530;-5.652;2022-12-29T05:28:20;101384.47;;;14.02
69415;BMP280;56608;43.530;-5.652;2022-12-29T05:29:21;101388.38;;;14.01
69415;BMP280;56608;43.530;-5.652;2022-12-29T05:30:23;101394.13;;;14.03
69415;BMP280;56608;43.530;-5.652;2022-12-29T05:31:24;101386.41;;;14.01
69415;BMP280;56608;43.530;-5.652;2022-12-29T05:32:25;101386.09;;;13.99
69415;BMP280;56608;43.530;-5.652;2022-12-29T05:33:27;101389.56;;;14.00
69415;BMP280;56608;43.530;-5.652;2022-12-29T05:34:28;101392.69;;;13.98
69415;BMP280;56608;43.530;-5.652;2022-12-29T05:35:30;101391.62;;;13.96
69415;BMP280;56608;43.530;-5.652;2022-12-29T05:36:31;101401.25;;;13.97
69415;BMP280;56608;43.530;-5.652;2022-12-29T05:37:32;101411.59;;;13.98
69415;BMP280;56608;43.530;-5.652;2022-12-29T05:38:33;101408.16;;;13.98
69415;BMP280;56608;43.530;-5.652;2022-12-29T05:39:35;101396.72;;;13.94
69415;BMP280;56608;43.530;-5.652;2022-12-29T05:40:36;101401.25;;;13.97
69415;BMP280;56608;43.530;-5.652;2022-12-29T05:41:38;101397.47;;;13.94
69415;BMP280;56608;43.530;-5.652;2022-12-29T05:42:39;101383.22;;;13.94
69415;BMP280;56608;43.530;-5.652;2022-12-29T05:43:41;101384.41;;;13.93
69415;BMP280;56608;43.530;-5.652;2022-12-29T05:44:42;101388.19;;;13.95
69415;BMP280;56608;43.530;-5.652;2022-12-29T05:45:42;101379.31;;;13.95
69415;BMP280;56608;43.530;-5.652;2022-12-29T05:46:44;101391.62;;;13.96
69415;BMP280;56608;43.530;-5.652;2022-12-29T05:47:45;101391.31;;;13.94
69415;BMP280;56608;43.530;-5.652;2022-12-29T05:48:47;101384.72;;;13.95
69415;BMP280;56608;43.530;-5.652;2022-12-29T05:49:48;101380.50;;;13.94
69415;BMP280;56608;43.530;-5.652;2022-12-29T05:50:51;101388.19;;;13.95
69415;BMP280;56608;43.530;-5.652;2022-12-29T05:51:52;101380.84;;;13.96
69415;BMP280;56608;43.530;-5.652;2022-12-29T05:52:54;101384.72;;;13.95
69415;BMP280;56608;43.530;-5.652;2022-12-29T05:53:54;101389.56;;;14.00
69415;BMP280;56608;43.530;-5.652;2022-12-29T05:54:55;101384.91;;;14.00
69415;BMP280;56608;43.530;-5.652;2022-12-29T05:55:56;101383.84;;;13.98
69415;BMP280;56608;43.530;-5.652;2022-12-29T05:56:58;101390.00;;;13.98
69415;BMP280;56608;43.530;-5.652;2022-12-29T05:57:59;101388.50;;;13.97
69415;BMP280;56608;43.530;-5.652;2022-12-29T05:59:01;101399.75;;;13.96
69415;BMP280;56608;43.530;-5.652;2022-12-29T06:00:04;101386.25;;;13.96
69415;BMP280;56608;43.530;-5.652;2022-12-29T06:01:05;101398.56;;;13.97
69415;BMP280;56608;43.530;-5.652;2022-12-29T06:02:07;101397.03;;;13.96
69415;BMP280;56608;43.530;-5.652;2022-12-29T06:03:09;101400.03;;;13.98
69415;BMP280;56608;43.530;-5.652;2022-12-29T06:04:10;101397.81;;;13.96
69415;BMP280;56608;43.530;-5.652;2022-12-29T06:05:11;101396.16;;;13.99
69415;BMP280;56608;43.530;-5.652;2022-12-29T06:06:12;101405.44;;;13.98
69415;BMP280;56608;43.530;-5.652;2022-12-29T06:07:14;101406.94;;;13.99
69415;BMP280;56608;43.530;-5.652;2022-12-29T06:08:15;101414.19;;;14.02
69415;BMP280;56608;43.530;-5.652;2022-12-29T06:09:17;101401.19;;;13.88
69415;BMP280;56608;43.530;-5.652;2022-12-29T06:10:18;101414.00;;;13.96
69415;BMP280;56608;43.530;-5.652;2022-12-29T06:11:19;101407.19;;;13.92
69415;BMP280;56608;43.530;-5.652;2022-12-29T06:12:21;101417.91;;;13.95
69415;BMP280;56608;43.530;-5.652;2022-12-29T06:13:22;101422.12;;;13.96
69415;BMP280;56608;43.530;-5.652;2022-12-29T06:14:24;101426.75;;;13.96
69415;BMP280;56608;43.530;-5.652;2022-12-29T06:15:25;101424.06;;;13.96
69415;BMP280;56608;43.530;-5.652;2022-12-29T06:16:26;101420.16;;;13.97
69415;BMP280;56608;43.530;-5.652;2022-12-29T06:17:28;101427.06;;;13.98
69415;BMP280;56608;43.530;-5.652;2022-12-29T06:18:28;101430.06;;;14.00
69415;BMP280;56608;43.530;-5.652;2022-12-29T06:19:30;101421.22;;;13.99
69415;BMP280;56608;43.530;-5.652;2022-12-29T06:20:31;101425.75;;;14.02
69415;BMP280;56608;43.530;-5.652;2022-12-29T06:21:33;101431.16;;;14.02
69415;BMP280;56608;43.530;-5.652;2022-12-29T06:22:34;101435.47;;;14.00
69415;BMP280;56608;43.530;-5.652;2022-12-29T06:23:36;101432.47;;;13.98
69415;BMP280;56608;43.530;-5.652;2022-12-29T06:24:38;101438.19;;;14.00
69415;BMP280;56608;43.530;-5.652;2022-12-29T06:25:39;101444.78;;;13.99
69415;BMP280;56608;43.530;-5.652;2022-12-29T06:26:40;101441.78;;;13.97
69415;BMP280;56608;43.530;-5.652;2022-12-29T06:27:43;101437.84;;;13.98
69415;BMP280;56608;43.530;-5.652;2022-12-29T06:28:43;101448.66;;;13.98
69415;BMP280;56608;43.530;-5.652;2022-12-29T06:29:45;101439.19;;;13.93
69415;BMP280;56608;43.530;-5.652;2022-12-29T06:30:46;101439.06;;;13.97
69415;BMP280;56608;43.530;-5.652;2022-12-29T06:31:49;101439.06;;;13.97
69415;BMP280;56608;43.530;-5.652;2022-12-29T06:32:52;101441.78;;;13.97